METAR Data
IDs: Format: Raw Decoded Include TAF

Data at: 1336 UTC 21 Apr 2021

METAR for:KPRO (Perry Muni, IA, US)
Text:KPRO 211335Z AUTO 35010KT 10SM SCT011 OVC025 00/M04 A3022 RMK AO2 T00001040
Temperature: 0.0°C ( 32°F)
Dewpoint: -4.0°C ( 25°F) [RH = 74%]
Pressure (altimeter):30.22 inches Hg (1023.5 mb)
Winds:from the N (350 degrees) at 12 MPH (10 knots; 5.1 m/s)
Visibility:10 or more sm (16+ km)
Ceiling:2500 feet AGL
Clouds: scattered clouds at 1100 feet AGL, overcast cloud deck at 2500 feet AGL
QC Flag:automated observation with no human augmentation